PANC/ANC METAR and TAF weather

Enter ICAO airport designator
Station Type Date Time Source
PANC METAR 2022/06/30 00:53 UTC NOAA

PANC 300053Z 29006KT 5SM FU FEW000 FEW050 24/13 A3002 RMK AO2 SLP166 FU FEW000 T02390133


Station Type Date Time Source
PANC Decoded METAR 2022/06/30 00:53 UTC NOAA

TED STEVENS ANCHORAGE INTERNATIONAL , AK, United States (PANC) 61-10N 150-02W 48M
Jun 29, 2022 - 08:53 PM EDT / 2022.06.30 0053 UTC
Wind: from the WNW (290 degrees) at 7 MPH (6 KT):0
Visibility: 5 mile(s):0
Sky conditions: mostly clear
Weather: smoke
Temperature: 75.0 F (23.9 C)
Dew Point: 55.9 F (13.3 C)
Relative Humidity: 51%
Pressure (altimeter): 30.02 in. Hg (1016 hPa)
ob: PANC 300053Z 29006KT 5SM FU FEW000 FEW050 24/13 A3002 RMK AO2 SLP166 FU FEW000 T02390133
cycle: 1

Station Type Date Time Source
PANC TAF 2022/06/29 21:06 UTC NOAA

TAF
AMD PANC 292104Z 2921/3024 21006KT 4SM FU SKC

Example: see airport list